sensor_id;sensor_type;location;lat;lon;timestamp;temperature;humidity
74946;HTU21D;63509;45.250;38.102;2022-12-07T00:01:09;1.11;69.10
74946;HTU21D;63509;45.250;38.102;2022-12-07T00:03:37;1.06;69.13
74946;HTU21D;63509;45.250;38.102;2022-12-07T00:06:04;1.05;69.20
74946;HTU21D;63509;45.250;38.102;2022-12-07T00:08:32;1.06;69.23
74946;HTU21D;63509;45.250;38.102;2022-12-07T00:11:06;1.08;69.25
74946;HTU21D;63509;45.250;38.102;2022-12-07T00:13:34;1.09;69.23
74946;HTU21D;63509;45.250;38.102;2022-12-07T00:16:09;1.12;69.22
74946;HTU21D;63509;45.250;38.102;2022-12-07T00:18:35;1.13;69.14
74946;HTU21D;63509;45.250;38.102;2022-12-07T00:21:04;1.14;69.10
74946;HTU21D;63509;45.250;38.102;2022-12-07T00:23:30;1.13;69.01
74946;HTU21D;63509;45.250;38.102;2022-12-07T00:26:03;1.12;69.04
74946;HTU21D;63509;45.250;38.102;2022-12-07T00:28:30;1.12;69.01
74946;HTU21D;63509;45.250;38.102;2022-12-07T00:31:04;1.13;68.99
74946;HTU21D;63509;45.250;38.102;2022-12-07T00:33:31;1.14;68.99
74946;HTU21D;63509;45.250;38.102;2022-12-07T00:35:59;1.14;69.01
74946;HTU21D;63509;45.250;38.102;2022-12-07T00:38:28;1.16;69.00
74946;HTU21D;63509;45.250;38.102;2022-12-07T00:41:00;1.14;69.01
74946;HTU21D;63509;45.250;38.102;2022-12-07T00:43:26;1.16;69.02
74946;HTU21D;63509;45.250;38.102;2022-12-07T00:45:53;1.16;69.02
74946;HTU21D;63509;45.250;38.102;2022-12-07T00:48:20;1.14;69.04
74946;HTU21D;63509;45.250;38.102;2022-12-07T00:50:47;1.14;69.04
74946;HTU21D;63509;45.250;38.102;2022-12-07T00:53:13;1.14;69.03
74946;HTU21D;63509;45.250;38.102;2022-12-07T00:55:39;1.14;69.05
74946;HTU21D;63509;45.250;38.102;2022-12-07T00:58:06;1.17;69.03
74946;HTU21D;63509;45.250;38.102;2022-12-07T01:00:32;1.16;69.04
74946;HTU21D;63509;45.250;38.102;2022-12-07T01:02:59;1.17;69.04
74946;HTU21D;63509;45.250;38.102;2022-12-07T01:05:25;1.18;69.05
74946;HTU21D;63509;45.250;38.102;2022-12-07T01:07:51;1.17;69.13
74946;HTU21D;63509;45.250;38.102;2022-12-07T01:10:17;1.19;69.05
74946;HTU21D;63509;45.250;38.102;2022-12-07T01:12:43;1.17;69.11
74946;HTU21D;63509;45.250;38.102;2022-12-07T01:15:09;1.14;69.05
74946;HTU21D;63509;45.250;38.102;2022-12-07T01:17:36;1.12;69.06
74946;HTU21D;63509;45.250;38.102;2022-12-07T01:20:03;1.12;69.10
74946;HTU21D;63509;45.250;38.102;2022-12-07T01:22:29;1.12;69.10
74946;HTU21D;63509;45.250;38.102;2022-12-07T01:24:55;1.11;69.07
74946;HTU21D;63509;45.250;38.102;2022-12-07T01:27:22;1.08;69.07
74946;HTU21D;63509;45.250;38.102;2022-12-07T01:29:47;1.07;69.10
74946;HTU21D;63509;45.250;38.102;2022-12-07T01:32:14;1.05;69.10
74946;HTU21D;63509;45.250;38.102;2022-12-07T01:34:40;1.05;69.12
74946;HTU21D;63509;45.250;38.102;2022-12-07T01:37:06;1.03;69.11
74946;HTU21D;63509;45.250;38.102;2022-12-07T01:39:32;1.02;69.10
74946;HTU21D;63509;45.250;38.102;2022-12-07T01:41:58;0.98;69.16
74946;HTU21D;63509;45.250;38.102;2022-12-07T01:44:25;0.96;69.16
74946;HTU21D;63509;45.250;38.102;2022-12-07T01:46:52;0.96;69.18
74946;HTU21D;63509;45.250;38.102;2022-12-07T01:49:24;0.97;69.31
74946;HTU21D;63509;45.250;38.102;2022-12-07T01:51:58;0.98;69.20
74946;HTU21D;63509;45.250;38.102;2022-12-07T01:54:26;0.97;69.17
74946;HTU21D;63509;45.250;38.102;2022-12-07T01:56:54;0.94;69.20
74946;HTU21D;63509;45.250;38.102;2022-12-07T01:59:23;0.91;69.23
74946;HTU21D;63509;45.250;38.102;2022-12-07T02:01:52;0.87;69.25
74946;HTU21D;63509;45.250;38.102;2022-12-07T02:04:19;0.84;69.35
74946;HTU21D;63509;45.250;38.102;2022-12-07T02:06:46;0.86;69.36
74946;HTU21D;63509;45.250;38.102;2022-12-07T02:09:12;0.86;69.34
74946;HTU21D;63509;45.250;38.102;2022-12-07T02:11:39;0.87;69.36
74946;HTU21D;63509;45.250;38.102;2022-12-07T02:14:06;0.87;69.37
74946;HTU21D;63509;45.250;38.102;2022-12-07T02:16:51;0.86;69.39
74946;HTU21D;63509;45.250;38.102;2022-12-07T02:19:43;0.83;69.44
74946;HTU21D;63509;45.250;38.102;2022-12-07T02:25:22;0.83;69.49
74946;HTU21D;63509;45.250;38.102;2022-12-07T02:28:18;0.83;69.46
74946;HTU21D;63509;45.250;38.102;2022-12-07T02:30:48;0.84;69.48
74946;HTU21D;63509;45.250;38.102;2022-12-07T02:33:26;0.84;69.51
74946;HTU21D;63509;45.250;38.102;2022-12-07T02:35:59;0.86;69.54
74946;HTU21D;63509;45.250;38.102;2022-12-07T02:38:34;0.88;69.57
74946;HTU21D;63509;45.250;38.102;2022-12-07T02:41:28;0.90;69.61
74946;HTU21D;63509;45.250;38.102;2022-12-07T02:44:02;0.91;69.60
74946;HTU21D;63509;45.250;38.102;2022-12-07T02:46:33;0.93;69.61
74946;HTU21D;63509;45.250;38.102;2022-12-07T02:49:00;0.95;69.61
74946;HTU21D;63509;45.250;38.102;2022-12-07T02:51:30;0.94;69.66
74946;HTU21D;63509;45.250;38.102;2022-12-07T02:53:56;0.95;69.68
74946;HTU21D;63509;45.250;38.102;2022-12-07T02:57:05;0.98;69.71
74946;HTU21D;63509;45.250;38.102;2022-12-07T03:08:04;0.98;69.87
74946;HTU21D;63509;45.250;38.102;2022-12-07T03:10:45;0.99;69.94
74946;HTU21D;63509;45.250;38.102;2022-12-07T03:13:33;1.01;69.97
74946;HTU21D;63509;45.250;38.102;2022-12-07T03:16:20;0.99;70.01
74946;HTU21D;63509;45.250;38.102;2022-12-07T03:21:26;1.03;70.05
74946;HTU21D;63509;45.250;38.102;2022-12-07T03:23:56;1.04;70.06
74946;HTU21D;63509;45.250;38.102;2022-12-07T03:26:36;1.03;70.09
74946;HTU21D;63509;45.250;38.102;2022-12-07T03:29:21;1.02;70.16
74946;HTU21D;63509;45.250;38.102;2022-12-07T03:31:55;1.01;70.16
74946;HTU21D;63509;45.250;38.102;2022-12-07T03:34:34;0.97;70.19
74946;HTU21D;63509;45.250;38.102;2022-12-07T03:37:17;0.96;70.20
74946;HTU21D;63509;45.250;38.102;2022-12-07T03:40:30;0.93;70.19
74946;HTU21D;63509;45.250;38.102;2022-12-07T03:42:31;0.93;70.26
74946;HTU21D;63509;45.250;38.102;2022-12-07T03:44:59;0.88;70.26
74946;HTU21D;63509;45.250;38.102;2022-12-07T03:47:37;0.86;70.34
74946;HTU21D;63509;45.250;38.102;2022-12-07T03:52:47;0.82;70.37
74946;HTU21D;63509;45.250;38.102;2022-12-07T03:55:20;0.76;70.40
74946;HTU21D;63509;45.250;38.102;2022-12-07T03:57:51;0.71;70.51
74946;HTU21D;63509;45.250;38.102;2022-12-07T04:00:19;0.72;70.53
74946;HTU21D;63509;45.250;38.102;2022-12-07T04:02:45;0.73;70.58
74946;HTU21D;63509;45.250;38.102;2022-12-07T04:05:11;0.72;70.61
74946;HTU21D;63509;45.250;38.102;2022-12-07T04:07:37;0.69;70.62
74946;HTU21D;63509;45.250;38.102;2022-12-07T04:10:04;0.62;70.68
74946;HTU21D;63509;45.250;38.102;2022-12-07T04:12:30;0.51;70.77
74946;HTU21D;63509;45.250;38.102;2022-12-07T04:14:56;0.48;70.86
74946;HTU21D;63509;45.250;38.102;2022-12-07T04:17:22;0.48;70.93
74946;HTU21D;63509;45.250;38.102;2022-12-07T04:19:49;0.48;70.96
74946;HTU21D;63509;45.250;38.102;2022-12-07T04:22:15;0.49;70.99
74946;HTU21D;63509;45.250;38.102;2022-12-07T04:24:41;0.50;70.98
74946;HTU21D;63509;45.250;38.102;2022-12-07T04:27:07;0.51;71.03
74946;HTU21D;63509;45.250;38.102;2022-12-07T04:29:33;0.54;71.04
74946;HTU21D;63509;45.250;38.102;2022-12-07T04:31:59;0.55;71.02
74946;HTU21D;63509;45.250;38.102;2022-12-07T04:34:25;0.53;71.04
74946;HTU21D;63509;45.250;38.102;2022-12-07T04:36:51;0.50;71.01
74946;HTU21D;63509;45.250;38.102;2022-12-07T04:39:27;0.48;71.03
74946;HTU21D;63509;45.250;38.102;2022-12-07T04:41:53;0.49;71.01
74946;HTU21D;63509;45.250;38.102;2022-12-07T04:44:20;0.48;70.96
74946;HTU21D;63509;45.250;38.102;2022-12-07T04:46:47;0.45;70.95
74946;HTU21D;63509;45.250;38.102;2022-12-07T04:49:14;0.42;71.02
74946;HTU21D;63509;45.250;38.102;2022-12-07T04:51:41;0.40;71.03
74946;HTU21D;63509;45.250;38.102;2022-12-07T04:54:07;0.38;70.97
74946;HTU21D;63509;45.250;38.102;2022-12-07T04:56:34;0.35;71.03
74946;HTU21D;63509;45.250;38.102;2022-12-07T04:59:01;0.31;71.06
74946;HTU21D;63509;45.250;38.102;2022-12-07T05:01:27;0.30;71.06
74946;HTU21D;63509;45.250;38.102;2022-12-07T05:03:53;0.30;71.06
74946;HTU21D;63509;45.250;38.102;2022-12-07T05:06:19;0.28;71.08
74946;HTU21D;63509;45.250;38.102;2022-12-07T05:08:45;0.24;71.13
74946;HTU21D;63509;45.250;38.102;2022-12-07T05:11:12;0.25;71.16
74946;HTU21D;63509;45.250;38.102;2022-12-07T05:13:58;0.24;71.18
74946;HTU21D;63509;45.250;38.102;2022-12-07T05:16:24;0.27;71.21
74946;HTU21D;63509;45.250;38.102;2022-12-07T05:18:51;0.29;71.20
74946;HTU21D;63509;45.250;38.102;2022-12-07T05:21:17;0.29;71.21
74946;HTU21D;63509;45.250;38.102;2022-12-07T05:23:43;0.30;71.21
74946;HTU21D;63509;45.250;38.102;2022-12-07T05:26:09;0.30;71.26
74946;HTU21D;63509;45.250;38.102;2022-12-07T05:28:35;0.32;71.26
74946;HTU21D;63509;45.250;38.102;2022-12-07T05:31:01;0.32;71.26
74946;HTU21D;63509;45.250;38.102;2022-12-07T05:33:27;0.35;71.25
74946;HTU21D;63509;45.250;38.102;2022-12-07T05:35:53;0.36;71.26
74946;HTU21D;63509;45.250;38.102;2022-12-07T05:38:19;0.39;71.23
74946;HTU21D;63509;45.250;38.102;2022-12-07T05:40:45;0.38;71.20
74946;HTU21D;63509;45.250;38.102;2022-12-07T05:43:11;0.33;71.24
74946;HTU21D;63509;45.250;38.102;2022-12-07T05:45:37;0.25;71.29
74946;HTU21D;63509;45.250;38.102;2022-12-07T05:48:03;0.23;71.38
74946;HTU21D;63509;45.250;38.102;2022-12-07T05:50:29;0.25;71.48
74946;HTU21D;63509;45.250;38.102;2022-12-07T05:53:01;0.29;71.48
74946;HTU21D;63509;45.250;38.102;2022-12-07T05:55:27;0.35;71.51
74946;HTU21D;63509;45.250;38.102;2022-12-07T05:57:53;0.40;71.51
74946;HTU21D;63509;45.250;38.102;2022-12-07T06:00:38;0.50;71.50
74946;HTU21D;63509;45.250;38.102;2022-12-07T06:03:04;0.61;71.47
74946;HTU21D;63509;45.250;38.102;2022-12-07T06:05:30;0.75;71.41
74946;HTU21D;63509;45.250;38.102;2022-12-07T06:07:56;0.86;71.31
74946;HTU21D;63509;45.250;38.102;2022-12-07T06:10:23;0.92;71.24
74946;HTU21D;63509;45.250;38.102;2022-12-07T06:12:49;0.99;71.22
74946;HTU21D;63509;45.250;38.102;2022-12-07T06:15:15;1.14;71.21
74946;HTU21D;63509;45.250;38.102;2022-12-07T06:17:41;1.27;71.07
74946;HTU21D;63509;45.250;38.102;2022-12-07T06:20:08;1.41;70.98
74946;HTU21D;63509;45.250;38.102;2022-12-07T06:22:34;1.56;70.90
74946;HTU21D;63509;45.250;38.102;2022-12-07T06:25:00;1.70;70.76
74946;HTU21D;63509;45.250;38.102;2022-12-07T06:27:27;1.78;70.74
74946;HTU21D;63509;45.250;38.102;2022-12-07T06:29:53;1.92;70.81
74946;HTU21D;63509;45.250;38.102;2022-12-07T06:32:19;2.07;70.80
74946;HTU21D;63509;45.250;38.102;2022-12-07T06:34:45;2.24;70.77
74946;HTU21D;63509;45.250;38.102;2022-12-07T06:37:13;2.41;70.64
74946;HTU21D;63509;45.250;38.102;2022-12-07T06:39:39;2.55;70.55
74946;HTU21D;63509;45.250;38.102;2022-12-07T06:42:05;2.66;70.46
74946;HTU21D;63509;45.250;38.102;2022-12-07T06:44:31;2.68;70.19
74946;HTU21D;63509;45.250;38.102;2022-12-07T06:46:58;2.59;70.16
74946;HTU21D;63509;45.250;38.102;2022-12-07T06:49:24;2.52;70.26
74946;HTU21D;63509;45.250;38.102;2022-12-07T06:51:50;2.45;70.29
74946;HTU21D;63509;45.250;38.102;2022-12-07T06:54:16;2.41;70.43
74946;HTU21D;63509;45.250;38.102;2022-12-07T06:56:43;2.41;70.48
74946;HTU21D;63509;45.250;38.102;2022-12-07T06:59:09;2.45;70.58
74946;HTU21D;63509;45.250;38.102;2022-12-07T07:01:36;2.58;70.60
74946;HTU21D;63509;45.250;38.102;2022-12-07T07:04:02;2.70;70.38
74946;HTU21D;63509;45.250;38.102;2022-12-07T07:06:28;2.71;70.23
74946;HTU21D;63509;45.250;38.102;2022-12-07T07:08:54;2.69;70.31
74946;HTU21D;63509;45.250;38.102;2022-12-07T07:11:20;2.71;70.28
74946;HTU21D;63509;45.250;38.102;2022-12-07T07:13:46;2.73;70.29
74946;HTU21D;63509;45.250;38.102;2022-12-07T07:16:13;2.71;70.24
74946;HTU21D;63509;45.250;38.102;2022-12-07T07:18:39;2.69;70.26
74946;HTU21D;63509;45.250;38.102;2022-12-07T07:21:05;2.68;70.35
74946;HTU21D;63509;45.250;38.102;2022-12-07T07:23:31;2.66;70.30
74946;HTU21D;63509;45.250;38.102;2022-12-07T07:25:57;2.61;70.30
74946;HTU21D;63509;45.250;38.102;2022-12-07T07:28:23;2.59;70.35
74946;HTU21D;63509;45.250;38.102;2022-12-07T07:30:49;2.56;70.40
74946;HTU21D;63509;45.250;38.102;2022-12-07T07:33:15;2.53;70.38
74946;HTU21D;63509;45.250;38.102;2022-12-07T07:35:41;2.52;70.48
74946;HTU21D;63509;45.250;38.102;2022-12-07T07:38:08;2.49;70.49
74946;HTU21D;63509;45.250;38.102;2022-12-07T07:40:34;2.50;70.44
74946;HTU21D;63509;45.250;38.102;2022-12-07T07:43:00;2.40;70.43
74946;HTU21D;63509;45.250;38.102;2022-12-07T07:45:27;2.41;70.60
74946;HTU21D;63509;45.250;38.102;2022-12-07T07:47:53;2.45;70.64
74946;HTU21D;63509;45.250;38.102;2022-12-07T07:50:20;2.52;70.66
74946;HTU21D;63509;45.250;38.102;2022-12-07T07:52:46;2.55;70.68
74946;HTU21D;63509;45.250;38.102;2022-12-07T07:55:13;2.61;70.67
74946;HTU21D;63509;45.250;38.102;2022-12-07T07:57:40;2.65;70.64
74946;HTU21D;63509;45.250;38.102;2022-12-07T08:00:09;2.62;70.48
74946;HTU21D;63509;45.250;38.102;2022-12-07T08:02:39;2.56;70.45
74946;HTU21D;63509;45.250;38.102;2022-12-07T08:05:06;2.56;70.57
74946;HTU21D;63509;45.250;38.102;2022-12-07T08:07:32;2.65;70.76
74946;HTU21D;63509;45.250;38.102;2022-12-07T08:09:58;2.81;70.76
74946;HTU21D;63509;45.250;38.102;2022-12-07T08:12:24;2.96;70.62
74946;HTU21D;63509;45.250;38.102;2022-12-07T08:14:50;3.10;70.48
74946;HTU21D;63509;45.250;38.102;2022-12-07T08:17:16;3.18;70.01
74946;HTU21D;63509;45.250;38.102;2022-12-07T08:19:42;3.21;70.16
74946;HTU21D;63509;45.250;38.102;2022-12-07T08:22:08;3.28;69.92
74946;HTU21D;63509;45.250;38.102;2022-12-07T08:24:35;3.26;69.81
74946;HTU21D;63509;45.250;38.102;2022-12-07T08:27:03;3.28;69.90
74946;HTU21D;63509;45.250;38.102;2022-12-07T08:29:29;3.32;69.97
74946;HTU21D;63509;45.250;38.102;2022-12-07T08:31:55;3.34;69.78
74946;HTU21D;63509;45.250;38.102;2022-12-07T08:34:21;3.35;69.65
74946;HTU21D;63509;45.250;38.102;2022-12-07T08:36:47;3.32;69.77
74946;HTU21D;63509;45.250;38.102;2022-12-07T08:39:13;3.33;69.74
74946;HTU21D;63509;45.250;38.102;2022-12-07T08:41:39;3.35;69.76
74946;HTU21D;63509;45.250;38.102;2022-12-07T08:44:05;3.38;69.95
74946;HTU21D;63509;45.250;38.102;2022-12-07T08:46:38;3.45;69.90
74946;HTU21D;63509;45.250;38.102;2022-12-07T08:49:13;3.53;69.95
74946;HTU21D;63509;45.250;38.102;2022-12-07T08:51:41;3.63;70.10
74946;HTU21D;63509;45.250;38.102;2022-12-07T08:54:10;3.74;70.08
74946;HTU21D;63509;45.250;38.102;2022-12-07T08:56:37;3.87;70.19
74946;HTU21D;63509;45.250;38.102;2022-12-07T08:59:05;3.99;70.11
74946;HTU21D;63509;45.250;38.102;2022-12-07T09:01:31;4.08;70.10
74946;HTU21D;63509;45.250;38.102;2022-12-07T09:03:57;4.19;69.99
74946;HTU21D;63509;45.250;38.102;2022-12-07T09:06:23;4.23;69.81
74946;HTU21D;63509;45.250;38.102;2022-12-07T09:08:53;4.22;69.71
74946;HTU21D;63509;45.250;38.102;2022-12-07T09:11:20;4.26;69.58
74946;HTU21D;63509;45.250;38.102;2022-12-07T09:13:45;4.23;69.40
74946;HTU21D;63509;45.250;38.102;2022-12-07T09:16:12;4.21;69.44
74946;HTU21D;63509;45.250;38.102;2022-12-07T09:18:38;4.20;69.38
74946;HTU21D;63509;45.250;38.102;2022-12-07T09:21:04;4.18;69.28
74946;HTU21D;63509;45.250;38.102;2022-12-07T09:23:30;4.17;69.20
74946;HTU21D;63509;45.250;38.102;2022-12-07T09:26:03;4.12;69.26
74946;HTU21D;63509;45.250;38.102;2022-12-07T09:28:31;4.12;69.50
74946;HTU21D;63509;45.250;38.102;2022-12-07T09:30:57;4.16;69.52
74946;HTU21D;63509;45.250;38.102;2022-12-07T09:33:23;4.19;69.51
74946;HTU21D;63509;45.250;38.102;2022-12-07T09:35:50;4.24;69.60
74946;HTU21D;63509;45.250;38.102;2022-12-07T09:38:17;4.33;69.71
74946;HTU21D;63509;45.250;38.102;2022-12-07T09:40:44;4.47;69.71
74946;HTU21D;63509;45.250;38.102;2022-12-07T09:43:18;4.58;69.67
74946;HTU21D;63509;45.250;38.102;2022-12-07T09:45:55;4.69;69.58
74946;HTU21D;63509;45.250;38.102;2022-12-07T09:48:30;4.81;69.58
74946;HTU21D;63509;45.250;38.102;2022-12-07T09:50:59;4.88;69.29
74946;HTU21D;63509;45.250;38.102;2022-12-07T09:53:28;4.87;69.08
74946;HTU21D;63509;45.250;38.102;2022-12-07T09:55:56;4.83;69.16
74946;HTU21D;63509;45.250;38.102;2022-12-07T09:58:24;4.83;69.20
74946;HTU21D;63509;45.250;38.102;2022-12-07T10:01:13;4.86;69.24
74946;HTU21D;63509;45.250;38.102;2022-12-07T10:03:48;4.86;69.23
74946;HTU21D;63509;45.250;38.102;2022-12-07T10:06:15;4.84;69.00
74946;HTU21D;63509;45.250;38.102;2022-12-07T10:08:41;4.77;69.03
74946;HTU21D;63509;45.250;38.102;2022-12-07T10:11:10;4.73;69.00
74946;HTU21D;63509;45.250;38.102;2022-12-07T10:13:45;4.64;68.93
74946;HTU21D;63509;45.250;38.102;2022-12-07T10:16:35;4.53;68.95
74946;HTU21D;63509;45.250;38.102;2022-12-07T10:19:25;4.46;69.23
74946;HTU21D;63509;45.250;38.102;2022-12-07T10:24:28;4.47;69.43
74946;HTU21D;63509;45.250;38.102;2022-12-07T10:26:55;4.50;69.49
74946;HTU21D;63509;45.250;38.102;2022-12-07T10:29:27;4.54;69.45
74946;HTU21D;63509;45.250;38.102;2022-12-07T10:32:00;4.56;69.39
74946;HTU21D;63509;45.250;38.102;2022-12-07T10:34:36;4.54;69.45
74946;HTU21D;63509;45.250;38.102;2022-12-07T10:37:15;4.57;69.48
74946;HTU21D;63509;45.250;38.102;2022-12-07T10:39:55;4.59;69.50
74946;HTU21D;63509;45.250;38.102;2022-12-07T10:42:29;4.61;69.45
74946;HTU21D;63509;45.250;38.102;2022-12-07T10:45:16;4.62;69.51
74946;HTU21D;63509;45.250;38.102;2022-12-07T11:04:35;4.47;69.64
74946;HTU21D;63509;45.250;38.102;2022-12-07T11:15:28;4.60;69.62
74946;HTU21D;63509;45.250;38.102;2022-12-07T11:18:22;4.65;69.61
74946;HTU21D;63509;45.250;38.102;2022-12-07T11:21:54;4.67;69.56
74946;HTU21D;63509;45.250;38.102;2022-12-07T11:23:49;4.65;69.41
74946;HTU21D;63509;45.250;38.102;2022-12-07T11:32:14;4.63;69.45
74946;HTU21D;63509;45.250;38.102;2022-12-07T11:34:58;4.58;69.46
74946;HTU21D;63509;45.250;38.102;2022-12-07T11:37:31;4.51;69.49
74946;HTU21D;63509;45.250;38.102;2022-12-07T11:40:18;4.50;69.64
74946;HTU21D;63509;45.250;38.102;2022-12-07T11:43:21;4.52;69.70
74946;HTU21D;63509;45.250;38.102;2022-12-07T11:45:47;4.54;69.71
74946;HTU21D;63509;45.250;38.102;2022-12-07T11:48:25;4.56;69.72
74946;HTU21D;63509;45.250;38.102;2022-12-07T11:50:57;4.54;69.72
74946;HTU21D;63509;45.250;38.102;2022-12-07T11:53:26;4.54;69.71
74946;HTU21D;63509;45.250;38.102;2022-12-07T11:56:42;4.54;69.76
74946;HTU21D;63509;45.250;38.102;2022-12-07T11:59:00;4.53;69.65
74946;HTU21D;63509;45.250;38.102;2022-12-07T12:06:37;4.43;69.78
74946;HTU21D;63509;45.250;38.102;2022-12-07T12:09:14;4.42;69.85
74946;HTU21D;63509;45.250;38.102;2022-12-07T12:20:44;4.41;69.87
74946;HTU21D;63509;45.250;38.102;2022-12-07T12:26:16;4.43;69.88
74946;HTU21D;63509;45.250;38.102;2022-12-07T12:29:21;4.43;69.87
74946;HTU21D;63509;45.250;38.102;2022-12-07T12:32:11;4.43;69.87
74946;HTU21D;63509;45.250;38.102;2022-12-07T12:42:48;4.27;69.84
74946;HTU21D;63509;45.250;38.102;2022-12-07T12:45:29;4.22;69.87
74946;HTU21D;63509;45.250;38.102;2022-12-07T12:47:58;4.18;69.88
74946;HTU21D;63509;45.250;38.102;2022-12-07T12:50:31;4.17;69.91
74946;HTU21D;63509;45.250;38.102;2022-12-07T12:53:12;4.20;69.95
74946;HTU21D;63509;45.250;38.102;2022-12-07T13:00:45;4.16;69.84
74946;HTU21D;63509;45.250;38.102;2022-12-07T13:03:27;4.14;69.93
74946;HTU21D;63509;45.250;38.102;2022-12-07T13:08:51;4.14;69.98
74946;HTU21D;63509;45.250;38.102;2022-12-07T13:11:18;4.15;69.95
74946;HTU21D;63509;45.250;38.102;2022-12-07T13:13:45;4.14;69.91
74946;HTU21D;63509;45.250;38.102;2022-12-07T13:18:38;4.13;69.94
74946;HTU21D;63509;45.250;38.102;2022-12-07T13:26:15;4.14;69.96
74946;HTU21D;63509;45.250;38.102;2022-12-07T13:29:02;4.13;69.97
74946;HTU21D;63509;45.250;38.102;2022-12-07T13:34:38;4.15;69.98
74946;HTU21D;63509;45.250;38.102;2022-12-07T13:37:24;4.16;70.00
74946;HTU21D;63509;45.250;38.102;2022-12-07T13:39:54;4.17;70.00
74946;HTU21D;63509;45.250;38.102;2022-12-07T13:42:31;4.18;70.02
74946;HTU21D;63509;45.250;38.102;2022-12-07T13:44:58;4.17;70.03
74946;HTU21D;63509;45.250;38.102;2022-12-07T13:47:44;4.19;70.00
74946;HTU21D;63509;45.250;38.102;2022-12-07T13:50:31;4.17;70.02
74946;HTU21D;63509;45.250;38.102;2022-12-07T13:52:59;4.16;70.09
74946;HTU21D;63509;45.250;38.102;2022-12-07T13:55:27;4.16;70.10
74946;HTU21D;63509;45.250;38.102;2022-12-07T13:57:54;4.16;70.15
74946;HTU21D;63509;45.250;38.102;2022-12-07T14:00:28;4.15;70.19
74946;HTU21D;63509;45.250;38.102;2022-12-07T14:05:40;4.14;70.22
74946;HTU21D;63509;45.250;38.102;2022-12-07T14:10:41;4.12;70.29
74946;HTU21D;63509;45.250;38.102;2022-12-07T14:13:34;4.09;70.32
74946;HTU21D;63509;45.250;38.102;2022-12-07T14:16:02;4.03;70.34
74946;HTU21D;63509;45.250;38.102;2022-12-07T14:18:37;4.00;70.46
74946;HTU21D;63509;45.250;38.102;2022-12-07T14:23:30;3.99;70.60
74946;HTU21D;63509;45.250;38.102;2022-12-07T14:26:19;4.01;70.64
74946;HTU21D;63509;45.250;38.102;2022-12-07T14:28:47;4.00;70.64
74946;HTU21D;63509;45.250;38.102;2022-12-07T14:31:24;4.03;70.68
74946;HTU21D;63509;45.250;38.102;2022-12-07T14:33:50;4.04;70.67
74946;HTU21D;63509;45.250;38.102;2022-12-07T14:36:16;4.07;70.71
74946;HTU21D;63509;45.250;38.102;2022-12-07T14:38:42;4.09;70.69
74946;HTU21D;63509;45.250;38.102;2022-12-07T14:41:17;4.13;70.71
74946;HTU21D;63509;45.250;38.102;2022-12-07T14:44:12;4.14;70.70
74946;HTU21D;63509;45.250;38.102;2022-12-07T14:46:38;4.17;70.70
74946;HTU21D;63509;45.250;38.102;2022-12-07T14:49:04;4.19;70.73
74946;HTU21D;63509;45.250;38.102;2022-12-07T14:51:31;4.22;70.74
74946;HTU21D;63509;45.250;38.102;2022-12-07T14:53:57;4.23;70.72
74946;HTU21D;63509;45.250;38.102;2022-12-07T14:56:24;4.27;70.73
74946;HTU21D;63509;45.250;38.102;2022-12-07T14:58:50;4.28;70.73
74946;HTU21D;63509;45.250;38.102;2022-12-07T15:01:16;4.29;70.81
74946;HTU21D;63509;45.250;38.102;2022-12-07T15:03:43;4.31;70.87
74946;HTU21D;63509;45.250;38.102;2022-12-07T15:06:14;4.33;70.88
74946;HTU21D;63509;45.250;38.102;2022-12-07T15:08:40;4.35;70.86
74946;HTU21D;63509;45.250;38.102;2022-12-07T15:11:08;4.37;70.90
74946;HTU21D;63509;45.250;38.102;2022-12-07T15:13:35;4.37;70.90
74946;HTU21D;63509;45.250;38.102;2022-12-07T15:16:19;4.39;70.92
74946;HTU21D;63509;45.250;38.102;2022-12-07T15:18:46;4.42;70.89
74946;HTU21D;63509;45.250;38.102;2022-12-07T15:21:14;4.43;70.93
74946;HTU21D;63509;45.250;38.102;2022-12-07T15:23:40;4.44;70.91
74946;HTU21D;63509;45.250;38.102;2022-12-07T15:26:06;4.45;70.93
74946;HTU21D;63509;45.250;38.102;2022-12-07T15:28:34;4.45;70.97
74946;HTU21D;63509;45.250;38.102;2022-12-07T15:31:00;4.46;71.00
74946;HTU21D;63509;45.250;38.102;2022-12-07T15:33:26;4.46;70.99
74946;HTU21D;63509;45.250;38.102;2022-12-07T15:35:52;4.48;71.00
74946;HTU21D;63509;45.250;38.102;2022-12-07T15:38:18;4.48;71.03
74946;HTU21D;63509;45.250;38.102;2022-12-07T15:40:47;4.48;71.06
74946;HTU21D;63509;45.250;38.102;2022-12-07T15:43:13;4.48;71.06
74946;HTU21D;63509;45.250;38.102;2022-12-07T16:19:14;4.02;71.05
74946;HTU21D;63509;45.250;38.102;2022-12-07T16:21:40;4.03;71.23
74946;HTU21D;63509;45.250;38.102;2022-12-07T16:24:08;4.06;71.31
74946;HTU21D;63509;45.250;38.102;2022-12-07T16:26:35;4.12;71.32
74946;HTU21D;63509;45.250;38.102;2022-12-07T16:29:02;4.16;71.32
74946;HTU21D;63509;45.250;38.102;2022-12-07T16:31:28;4.20;71.31
74946;HTU21D;63509;45.250;38.102;2022-12-07T16:33:57;4.24;71.33
74946;HTU21D;63509;45.250;38.102;2022-12-07T16:36:24;4.28;71.27
74946;HTU21D;63509;45.250;38.102;2022-12-07T16:38:52;4.31;71.25
74946;HTU21D;63509;45.250;38.102;2022-12-07T16:41:18;4.36;71.26
74946;HTU21D;63509;45.250;38.102;2022-12-07T16:43:45;4.38;71.22
74946;HTU21D;63509;45.250;38.102;2022-12-07T16:46:11;4.39;71.21
74946;HTU21D;63509;45.250;38.102;2022-12-07T16:48:38;4.42;71.21
74946;HTU21D;63509;45.250;38.102;2022-12-07T16:51:06;4.44;71.19
74946;HTU21D;63509;45.250;38.102;2022-12-07T16:53:34;4.44;71.13
74946;HTU21D;63509;45.250;38.102;2022-12-07T16:56:00;4.41;71.10
74946;HTU21D;63509;45.250;38.102;2022-12-07T16:58:26;4.39;71.16
74946;HTU21D;63509;45.250;38.102;2022-12-07T17:00:52;4.38;71.22
74946;HTU21D;63509;45.250;38.102;2022-12-07T17:03:18;4.39;71.23
74946;HTU21D;63509;45.250;38.102;2022-12-07T17:05:45;4.43;71.22
74946;HTU21D;63509;45.250;38.102;2022-12-07T17:08:12;4.44;71.22
74946;HTU21D;63509;45.250;38.102;2022-12-07T17:10:41;4.45;71.21
74946;HTU21D;63509;45.250;38.102;2022-12-07T17:13:07;4.46;71.19
74946;HTU21D;63509;45.250;38.102;2022-12-07T17:15:56;4.47;71.20
74946;HTU21D;63509;45.250;38.102;2022-12-07T17:18:22;4.47;71.19
74946;HTU21D;63509;45.250;38.102;2022-12-07T17:20:48;4.48;71.19
74946;HTU21D;63509;45.250;38.102;2022-12-07T17:23:14;4.49;71.18
74946;HTU21D;63509;45.250;38.102;2022-12-07T17:25:40;4.49;71.14
74946;HTU21D;63509;45.250;38.102;2022-12-07T17:28:06;4.50;71.13
74946;HTU21D;63509;45.250;38.102;2022-12-07T17:30:32;4.51;71.13
74946;HTU21D;63509;45.250;38.102;2022-12-07T17:32:58;4.51;71.14
74946;HTU21D;63509;45.250;38.102;2022-12-07T17:35:24;4.52;71.13
74946;HTU21D;63509;45.250;38.102;2022-12-07T17:37:50;4.51;71.10
74946;HTU21D;63509;45.250;38.102;2022-12-07T17:40:16;4.53;71.10
74946;HTU21D;63509;45.250;38.102;2022-12-07T17:42:42;4.52;71.12
74946;HTU21D;63509;45.250;38.102;2022-12-07T17:45:12;4.51;71.11
74946;HTU21D;63509;45.250;38.102;2022-12-07T17:47:39;4.52;71.11